Time;durP1;ratioP1;P1;durP2;ratioP2;P2;SDS_P1;SDS_P2;PMS_P1;PMS_P2;Temp;Humidity;BMP_temperature;BMP_pressure;BME280_temperature;BME280_humidity;BME280_pressure;Samples;Min_cycle;Max_cycle;Signal;HPM_P1;HPM_P2
2021/08/26 00:08:01;;;;;;;5.53;2.90;;;10.90;99.90;;;;;;6263901;28;20279;-73
2021/08/26 00:11:05;;;;;;;3.47;2.63;;;10.80;99.90;;;;;;6248350;28;20234;-74
2021/08/26 00:14:07;;;;;;;6.60;2.70;;;10.70;99.90;;;;;;6248876;28;20235;-73
2021/08/26 00:17:10;;;;;;;3.93;2.83;;;10.70;99.90;;;;;;6246975;28;20188;-74
2021/08/26 00:20:12;;;;;;;4.17;2.83;;;10.70;99.90;;;;;;6248372;28;20711;-73
2021/08/26 00:23:15;;;;;;;4.33;2.87;;;10.70;99.90;;;;;;6247183;28;20188;-73
2021/08/26 00:26:17;;;;;;;4.47;3.10;;;10.70;99.90;;;;;;6230400;28;20699;-73
2021/08/26 00:29:19;;;;;;;5.00;2.93;;;10.70;99.90;;;;;;6248345;28;20223;-73
2021/08/26 00:32:22;;;;;;;4.17;3.10;;;10.60;99.90;;;;;;6247823;28;20257;-73
2021/08/26 00:35:24;;;;;;;3.80;2.73;;;10.60;99.90;;;;;;6248031;28;20282;-74
2021/08/26 00:38:26;;;;;;;4.30;3.03;;;10.60;99.90;;;;;;6247536;28;20602;-73
2021/08/26 00:41:28;;;;;;;3.53;2.67;;;10.60;99.90;;;;;;6247784;28;20199;-74
2021/08/26 00:44:31;;;;;;;4.50;2.77;;;10.60;99.90;;;;;;6247660;28;20664;-74
2021/08/26 00:47:35;;;;;;;3.67;2.57;;;10.50;99.90;;;;;;6229663;28;20219;-73
2021/08/26 00:50:37;;;;;;;2.93;2.50;;;10.50;99.90;;;;;;6246768;28;20345;-74
2021/08/26 00:53:40;;;;;;;4.67;2.60;;;10.50;99.90;;;;;;6245790;28;20221;-74
2021/08/26 00:56:43;;;;;;;4.47;2.87;;;10.50;99.90;;;;;;6247237;28;20191;-74
2021/08/26 00:59:45;;;;;;;4.77;3.07;;;10.50;99.90;;;;;;6247047;28;20271;-74
2021/08/26 01:03:04;;;;;;;3.67;2.70;;;10.40;99.90;;;;;;6246845;28;20188;-73
2021/08/26 01:06:13;;;;;;;3.47;2.77;;;10.50;99.90;;;;;;6247030;28;20193;-73
2021/08/26 01:09:20;;;;;;;5.20;2.60;;;10.50;99.90;;;;;;6246450;28;20219;-74
2021/08/26 01:12:23;;;;;;;4.03;2.90;;;10.50;99.90;;;;;;6228844;28;20229;-73
2021/08/26 01:15:27;;;;;;;4.37;2.83;;;10.50;99.90;;;;;;6261675;28;20644;-72
2021/08/26 01:18:34;;;;;;;3.67;2.50;;;10.50;99.90;;;;;;6246742;28;20271;-73
2021/08/26 01:21:36;;;;;;;4.67;3.07;;;10.50;99.90;;;;;;6246845;28;20255;-73
2021/08/26 01:24:40;;;;;;;3.77;2.80;;;10.50;99.90;;;;;;6246183;28;20650;-73
2021/08/26 01:27:54;;;;;;;3.47;2.63;;;10.50;99.90;;;;;;6246580;28;20227;-73
2021/08/26 01:30:56;;;;;;;4.10;2.83;;;10.50;99.90;;;;;;6246257;28;20211;-73
2021/08/26 01:34:02;;;;;;;4.80;2.80;;;10.50;99.90;;;;;;6246523;28;20271;-74
2021/08/26 01:37:04;;;;;;;4.23;2.80;;;10.50;99.90;;;;;;6245069;28;20283;-74
2021/08/26 01:40:09;;;;;;;8.63;3.50;;;10.50;99.90;;;;;;6246194;28;20192;-73
2021/08/26 01:43:12;;;;;;;4.30;3.23;;;10.50;99.90;;;;;;6245254;28;20284;-75
2021/08/26 01:46:17;;;;;;;3.77;2.70;;;10.40;99.90;;;;;;6246117;28;20262;-74
2021/08/26 01:49:20;;;;;;;3.63;2.90;;;10.40;99.90;;;;;;6245226;28;20277;-74
2021/08/26 01:52:27;;;;;;;4.63;2.70;;;10.50;99.90;;;;;;6245814;28;20572;-74
2021/08/26 01:55:30;;;;;;;4.03;3.03;;;10.50;99.90;;;;;;6245170;28;20292;-73
2021/08/26 01:58:32;;;;;;;6.30;3.23;;;10.50;99.90;;;;;;6246433;28;20220;-74
2021/08/26 02:01:35;;;;;;;4.10;2.83;;;10.50;99.90;;;;;;6246269;28;20196;-74
2021/08/26 02:04:38;;;;;;;4.10;2.87;;;10.50;99.90;;;;;;6265783;28;20199;-74
2021/08/26 02:07:45;;;;;;;4.27;2.80;;;10.50;99.90;;;;;;6249505;28;20269;-75
2021/08/26 02:10:47;;;;;;;5.10;2.80;;;10.50;99.90;;;;;;6251190;28;20326;-74
2021/08/26 02:13:50;;;;;;;4.07;2.80;;;10.50;99.90;;;;;;6266178;28;20311;-74
2021/08/26 02:16:52;;;;;;;4.67;3.03;;;10.40;99.90;;;;;;6251096;28;20294;-74
2021/08/26 02:19:55;;;;;;;6.17;3.10;;;10.40;99.90;;;;;;6249417;28;20203;-74
2021/08/26 02:22:57;;;;;;;3.67;2.80;;;10.40;99.90;;;;;;6249159;28;20192;-75
2021/08/26 02:25:59;;;;;;;4.37;3.03;;;10.40;99.90;;;;;;6249541;28;20200;-75
2021/08/26 02:29:03;;;;;;;4.17;3.10;;;10.30;99.90;;;;;;6250657;28;20200;-75
2021/08/26 02:32:06;;;;;;;5.23;3.40;;;10.30;99.90;;;;;;6250452;28;20595;-74
2021/08/26 02:35:09;;;;;;;3.50;2.70;;;10.30;99.90;;;;;;6249318;28;20192;-74
2021/08/26 02:38:12;;;;;;;4.40;2.60;;;10.30;99.90;;;;;;6250084;28;20191;-73
2021/08/26 02:41:14;;;;;;;6.17;2.87;;;10.40;99.90;;;;;;6250503;28;20203;-74
2021/08/26 02:44:16;;;;;;;3.87;3.10;;;10.40;99.90;;;;;;6250138;28;20675;-74
2021/08/26 02:47:19;;;;;;;3.67;2.83;;;10.40;99.90;;;;;;6251179;28;20195;-74
2021/08/26 02:50:21;;;;;;;4.83;3.53;;;10.40;99.90;;;;;;6248715;28;20199;-74
2021/08/26 02:53:23;;;;;;;5.27;3.10;;;10.40;99.90;;;;;;6248617;28;20223;-75
2021/08/26 02:56:26;;;;;;;4.83;3.20;;;10.40;99.90;;;;;;6250093;28;20238;-74
2021/08/26 02:59:28;;;;;;;4.83;3.13;;;10.50;99.90;;;;;;6248484;28;20330;-73
2021/08/26 03:02:30;;;;;;;4.70;3.03;;;10.50;99.90;;;;;;6249935;28;20212;-75
2021/08/26 03:05:32;;;;;;;7.03;3.67;;;10.50;99.90;;;;;;6249476;28;20230;-75
2021/08/26 03:08:35;;;;;;;4.30;3.07;;;10.60;99.90;;;;;;6248204;28;20292;-75
2021/08/26 03:11:37;;;;;;;5.37;3.47;;;10.60;99.90;;;;;;6248429;28;20229;-74
2021/08/26 03:14:39;;;;;;;6.27;3.60;;;10.70;99.90;;;;;;6249093;28;20648;-74
2021/08/26 03:17:42;;;;;;;4.30;2.90;;;10.80;99.90;;;;;;6249802;28;20670;-73
2021/08/26 03:20:44;;;;;;;5.67;3.73;;;10.80;99.90;;;;;;6248007;28;20666;-74
2021/08/26 03:23:46;;;;;;;4.93;3.20;;;10.80;99.90;;;;;;6247932;28;20226;-74
2021/08/26 03:26:49;;;;;;;5.10;2.90;;;10.90;99.90;;;;;;6249545;28;20310;-74
2021/08/26 03:29:52;;;;;;;5.83;3.33;;;10.90;99.90;;;;;;6248999;28;20529;-73
2021/08/26 03:32:54;;;;;;;5.87;3.47;;;10.90;99.90;;;;;;6247561;28;20238;-73
2021/08/26 03:35:56;;;;;;;5.83;3.57;;;11.00;99.90;;;;;;6224275;28;20185;-73
2021/08/26 03:38:58;;;;;;;5.07;3.40;;;11.10;99.90;;;;;;6246709;28;20189;-74
2021/08/26 03:42:01;;;;;;;7.33;3.80;;;11.20;99.90;;;;;;6249280;28;20202;-74
2021/08/26 03:45:05;;;;;;;4.93;3.40;;;11.30;99.90;;;;;;6247521;28;20220;-73
2021/08/26 03:48:07;;;;;;;4.63;3.00;;;11.50;99.90;;;;;;6248806;28;20200;-75
2021/08/26 03:51:09;;;;;;;4.33;2.80;;;11.70;99.90;;;;;;6247312;28;20228;-74
2021/08/26 03:54:12;;;;;;;7.43;3.53;;;11.80;99.90;;;;;;6248947;28;20307;-74
2021/08/26 03:57:14;;;;;;;6.13;3.43;;;11.90;99.90;;;;;;6231393;28;20225;-75
2021/08/26 04:00:16;;;;;;;6.77;3.80;;;11.90;99.90;;;;;;6248376;28;20200;-74
2021/08/26 04:03:20;;;;;;;5.47;3.20;;;12.10;99.90;;;;;;6247337;28;20201;-74
2021/08/26 04:06:22;;;;;;;4.90;3.13;;;12.30;99.90;;;;;;6248213;28;20616;-74
2021/08/26 04:09:24;;;;;;;3.73;3.03;;;12.40;99.90;;;;;;6248422;28;20201;-74
2021/08/26 04:12:28;;;;;;;5.47;3.57;;;12.50;99.90;;;;;;6246783;28;20226;-75
2021/08/26 04:15:30;;;;;;;5.40;3.27;;;12.50;99.90;;;;;;6248095;28;20218;-74
2021/08/26 04:18:32;;;;;;;4.37;3.20;;;12.70;99.90;;;;;;6246852;28;20202;-74
2021/08/26 04:21:35;;;;;;;4.77;3.63;;;12.70;99.90;;;;;;6246845;28;20194;-74
2021/08/26 04:24:37;;;;;;;3.63;3.00;;;12.80;99.90;;;;;;6247847;28;20265;-74
2021/08/26 04:27:39;;;;;;;4.47;3.37;;;12.80;99.90;;;;;;6247065;28;20664;-73
2021/08/26 04:30:42;;;;;;;5.20;3.20;;;12.90;99.90;;;;;;6247209;28;20250;-74
2021/08/26 04:33:44;;;;;;;5.50;3.23;;;13.00;99.90;;;;;;6246545;28;20193;-74
2021/08/26 04:36:48;;;;;;;6.63;3.57;;;13.20;99.90;;;;;;6238152;28;20199;-74
2021/08/26 04:39:50;;;;;;;4.80;3.07;;;13.30;99.90;;;;;;6235596;28;20193;-74
2021/08/26 04:42:52;;;;;;;4.53;3.03;;;13.40;99.90;;;;;;6262258;28;20201;-74
2021/08/26 04:45:55;;;;;;;4.83;3.00;;;13.40;99.90;;;;;;6245984;28;20255;-74
2021/08/26 04:48:57;;;;;;;4.10;3.13;;;13.50;99.90;;;;;;6245658;28;20698;-74
2021/08/26 04:51:59;;;;;;;5.03;3.20;;;13.50;99.90;;;;;;6261775;28;20202;-75
2021/08/26 04:55:03;;;;;;;3.53;2.63;;;13.50;99.90;;;;;;6205341;28;20668;-73
2021/08/26 04:58:06;;;;;;;4.73;2.67;;;13.50;99.90;;;;;;6243173;28;20726;-73
2021/08/26 05:01:08;;;;;;;3.83;3.07;;;13.50;99.90;;;;;;6245756;28;20616;-72
2021/08/26 05:04:11;;;;;;;3.30;2.87;;;13.50;99.90;;;;;;6261622;28;20250;-73
2021/08/26 05:07:13;;;;;;;4.93;3.10;;;13.50;99.90;;;;;;6235421;28;20203;-74
2021/08/26 05:10:15;;;;;;;4.40;3.07;;;13.50;99.90;;;;;;6229547;28;20210;-74
2021/08/26 05:13:18;;;;;;;4.77;3.07;;;13.50;99.90;;;;;;6246032;28;20238;-74
2021/08/26 05:16:22;;;;;;;4.90;3.00;;;13.50;99.90;;;;;;6244901;28;20198;-74
2021/08/26 05:19:27;;;;;;;6.43;2.97;;;13.60;99.90;;;;;;6246009;28;20202;-74
2021/08/26 05:22:30;;;;;;;4.60;3.10;;;13.60;99.90;;;;;;6227492;28;20216;-74
2021/08/26 05:25:34;;;;;;;5.27;3.50;;;13.70;99.90;;;;;;6243023;28;20198;-73
2021/08/26 05:28:36;;;;;;;5.60;3.17;;;13.70;99.90;;;;;;6259930;28;20200;-74
2021/08/26 05:31:39;;;;;;;6.83;3.30;;;13.80;99.90;;;;;;6228126;28;20357;-75
2021/08/26 05:34:42;;;;;;;4.20;3.13;;;13.90;99.90;;;;;;6245444;28;20191;-74
2021/08/26 05:37:44;;;;;;;4.60;3.10;;;14.00;99.90;;;;;;6245136;28;20686;-74
2021/08/26 05:40:46;;;;;;;4.37;3.20;;;14.10;99.90;;;;;;6228119;28;20243;-74
2021/08/26 05:43:49;;;;;;;4.93;3.37;;;14.30;99.90;;;;;;6245347;28;20200;-74
2021/08/26 05:46:51;;;;;;;5.00;3.20;;;14.40;99.90;;;;;;6228027;28;20202;-74
2021/08/26 05:49:53;;;;;;;6.00;3.50;;;14.60;99.90;;;;;;6245596;28;20556;-73
2021/08/26 05:52:56;;;;;;;4.10;3.20;;;14.70;99.90;;;;;;6260980;28;20365;-74
2021/08/26 05:55:58;;;;;;;4.17;3.40;;;14.90;99.90;;;;;;6245396;28;20604;-73
2021/08/26 05:59:01;;;;;;;4.40;3.53;;;15.00;99.90;;;;;;6243960;28;20199;-74
2021/08/26 06:02:03;;;;;;;4.70;3.20;;;15.10;99.90;;;;;;6244241;28;20238;-74
2021/08/26 06:05:07;;;;;;;3.87;3.40;;;15.20;99.90;;;;;;6260641;28;20192;-74
2021/08/26 06:08:09;;;;;;;5.20;3.70;;;15.20;99.90;;;;;;6245475;28;20196;-74
2021/08/26 06:11:12;;;;;;;4.50;3.60;;;15.20;99.90;;;;;;6245045;28;20192;-75
2021/08/26 06:14:14;;;;;;;6.33;3.90;;;15.20;99.90;;;;;;6243573;28;20231;-74
2021/08/26 06:17:16;;;;;;;6.27;3.57;;;15.20;99.90;;;;;;6245260;28;20215;-75
2021/08/26 06:20:18;;;;;;;4.83;3.70;;;15.20;99.90;;;;;;6245075;28;20184;-74
2021/08/26 06:23:21;;;;;;;5.27;3.57;;;15.20;99.90;;;;;;6236534;28;20197;-74
2021/08/26 06:26:23;;;;;;;5.63;3.53;;;15.30;99.90;;;;;;6229254;28;20270;-74
2021/08/26 06:29:25;;;;;;;5.73;3.70;;;15.30;99.90;;;;;;6244187;28;20368;-73
2021/08/26 06:32:27;;;;;;;5.57;3.60;;;15.40;99.90;;;;;;6245594;28;20206;-73
2021/08/26 06:35:30;;;;;;;8.33;4.10;;;15.40;99.90;;;;;;6244182;28;20334;-75
2021/08/26 06:38:32;;;;;;;4.70;3.50;;;15.50;99.90;;;;;;6244063;28;20245;-73
2021/08/26 06:41:34;;;;;;;4.90;3.50;;;15.60;99.90;;;;;;6243802;28;20200;-73
2021/08/26 06:44:37;;;;;;;4.67;3.50;;;15.70;99.90;;;;;;6245327;28;20686;-74
2021/08/26 06:47:39;;;;;;;4.57;3.80;;;15.70;99.90;;;;;;6245154;28;20569;-74
2021/08/26 06:50:41;;;;;;;3.67;3.10;;;15.80;99.90;;;;;;6247781;28;20208;-74
2021/08/26 06:53:44;;;;;;;5.67;3.93;;;15.80;99.90;;;;;;6264982;28;20299;-74
2021/08/26 06:56:46;;;;;;;5.50;3.97;;;15.80;99.90;;;;;;6248065;28;20212;-74
2021/08/26 06:59:48;;;;;;;7.17;4.50;;;15.70;99.90;;;;;;6249472;28;20267;-74
2021/08/26 07:02:51;;;;;;;6.77;4.30;;;15.70;99.90;;;;;;6247782;28;20671;-76
2021/08/26 07:05:53;;;;;;;5.70;3.90;;;15.80;99.90;;;;;;6231871;28;20253;-74
2021/08/26 07:08:56;;;;;;;7.83;4.00;;;15.80;99.90;;;;;;6264782;28;20199;-75
2021/08/26 07:11:58;;;;;;;4.47;3.80;;;15.80;99.90;;;;;;6246971;28;20207;-73
2021/08/26 07:15:01;;;;;;;5.43;3.80;;;15.90;99.90;;;;;;6248825;28;20379;-74
2021/08/26 07:18:03;;;;;;;7.17;3.63;;;15.90;99.90;;;;;;6230896;28;20199;-74
2021/08/26 07:21:06;;;;;;;5.00;3.77;;;15.90;99.90;;;;;;6248998;28;20690;-74
2021/08/26 07:24:09;;;;;;;5.13;3.80;;;16.00;99.90;;;;;;6248864;28;20279;-75
2021/08/26 07:27:11;;;;;;;3.73;3.23;;;16.00;99.90;;;;;;6263871;28;20295;-76
2021/08/26 07:30:14;;;;;;;5.70;3.97;;;16.00;99.90;;;;;;6247593;28;20197;-74
2021/08/26 07:33:17;;;;;;;5.37;3.63;;;16.10;99.90;;;;;;6244827;28;20215;-74
2021/08/26 07:36:19;;;;;;;4.30;3.30;;;16.10;99.90;;;;;;6247525;28;20519;-74
2021/08/26 07:39:21;;;;;;;6.73;4.00;;;16.10;99.90;;;;;;6248639;28;20401;-74
2021/08/26 07:42:23;;;;;;;5.73;4.10;;;16.10;99.90;;;;;;6263844;28;20196;-73
2021/08/26 07:45:26;;;;;;;5.63;3.70;;;16.20;99.90;;;;;;6248775;28;20275;-75
2021/08/26 07:48:28;;;;;;;6.07;4.03;;;16.20;99.90;;;;;;6246956;28;20271;-74
2021/08/26 07:51:31;;;;;;;5.10;3.70;;;16.20;99.90;;;;;;6248489;28;20233;-73
2021/08/26 07:54:33;;;;;;;5.63;3.90;;;16.30;99.90;;;;;;6248119;28;20198;-73
2021/08/26 07:57:35;;;;;;;5.30;3.80;;;16.30;99.90;;;;;;6246971;28;20726;-74
2021/08/26 08:00:38;;;;;;;7.50;3.50;;;16.50;99.90;;;;;;6245363;28;20196;-74
2021/08/26 08:03:40;;;;;;;5.40;3.63;;;16.60;99.90;;;;;;6222228;28;20219;-74
2021/08/26 08:06:43;;;;;;;5.23;3.23;;;16.60;99.90;;;;;;6247537;28;20750;-74
2021/08/26 08:09:45;;;;;;;3.93;3.20;;;16.80;99.90;;;;;;6247714;28;20214;-74
2021/08/26 08:12:47;;;;;;;5.90;4.00;;;16.90;99.90;;;;;;6247668;28;20227;-74
2021/08/26 08:15:50;;;;;;;5.83;3.57;;;17.10;99.90;;;;;;6246816;28;20294;-74
2021/08/26 08:18:52;;;;;;;5.10;4.07;;;17.20;99.90;;;;;;6246289;28;20544;-74
2021/08/26 08:21:54;;;;;;;5.03;4.17;;;17.40;99.90;;;;;;6246753;28;20553;-75
2021/08/26 08:24:56;;;;;;;4.63;3.60;;;17.40;99.90;;;;;;6229838;28;20208;-74
2021/08/26 08:27:59;;;;;;;5.20;3.47;;;17.50;99.90;;;;;;6247714;28;20205;-74
2021/08/26 08:31:01;;;;;;;4.90;3.77;;;17.50;99.90;;;;;;6263034;28;20209;-76
2021/08/26 08:34:03;;;;;;;6.87;4.67;;;17.60;99.90;;;;;;6229875;28;20683;-75
2021/08/26 08:37:06;;;;;;;5.10;3.87;;;17.50;99.90;;;;;;6247535;28;20304;-74
2021/08/26 08:40:08;;;;;;;6.63;4.50;;;17.50;99.90;;;;;;6245508;28;20242;-75
2021/08/26 08:43:10;;;;;;;7.57;4.50;;;17.50;99.90;;;;;;6246182;28;20207;-74
2021/08/26 08:46:13;;;;;;;5.23;3.80;;;17.50;99.90;;;;;;6247444;28;20202;-75
2021/08/26 08:49:21;;;;;;;4.03;3.40;;;17.50;99.90;;;;;;6244156;28;20196;-75
2021/08/26 08:52:24;;;;;;;5.43;4.23;;;17.50;99.90;;;;;;6253083;28;20230;-76
2021/08/26 08:55:27;;;;;;;4.93;3.73;;;17.40;99.90;;;;;;6220172;28;20507;-75
2021/08/26 08:58:33;;;;;;;5.53;3.87;;;17.40;99.90;;;;;;6232799;28;20187;-75
2021/08/26 09:01:36;;;;;;;4.03;3.43;;;17.30;99.90;;;;;;6245274;28;20334;-74
2021/08/26 09:04:56;;;;;;;6.33;4.37;;;17.30;99.90;;;;;;6246229;28;20191;-75
2021/08/26 09:08:10;;;;;;;5.07;3.77;;;17.30;99.90;;;;;;6246669;28;20188;-76
2021/08/26 09:11:20;;;;;;;5.63;4.20;;;17.30;99.90;;;;;;6246102;28;20186;-75
2021/08/26 09:14:27;;;;;;;4.70;3.73;;;17.30;99.90;;;;;;6240337;28;20305;-75
2021/08/26 09:17:30;;;;;;;4.30;3.40;;;17.30;99.90;;;;;;6244476;28;20189;-75
2021/08/26 09:20:32;;;;;;;4.57;3.50;;;17.40;99.90;;;;;;6245229;28;20784;-75
2021/08/26 09:23:50;;;;;;;5.67;4.27;;;17.40;99.90;;;;;;6244802;28;20202;-75
2021/08/26 09:26:52;;;;;;;6.50;3.60;;;17.50;99.90;;;;;;6245134;28;20275;-75
2021/08/26 09:30:16;;;;;;;5.10;4.07;;;17.50;99.90;;;;;;6244564;28;20525;-75
2021/08/26 09:33:18;;;;;;;7.57;4.17;;;17.60;99.90;;;;;;6260232;28;20294;-75
2021/08/26 09:36:24;;;;;;;5.33;3.73;;;17.70;99.90;;;;;;6244287;28;20246;-76
2021/08/26 09:39:30;;;;;;;4.73;3.77;;;17.80;99.90;;;;;;6245157;28;20188;-75
2021/08/26 09:42:32;;;;;;;5.47;3.90;;;17.80;99.90;;;;;;6244044;28;20214;-75
2021/08/26 09:45:37;;;;;;;6.27;4.00;;;17.90;99.90;;;;;;6236047;28;20660;-74
2021/08/26 09:48:40;;;;;;;5.03;4.00;;;18.00;99.90;;;;;;6244126;28;20196;-74
2021/08/26 09:51:44;;;;;;;6.40;3.90;;;18.00;99.90;;;;;;6244421;28;20554;-76
2021/08/26 09:54:51;;;;;;;5.20;3.53;;;18.00;99.90;;;;;;6244416;28;20219;-75
2021/08/26 09:58:14;;;;;;;5.50;3.60;;;17.90;99.90;;;;;;6244577;28;20198;-76
2021/08/26 10:01:21;;;;;;;5.23;3.93;;;17.80;99.90;;;;;;6245665;28;20370;-75
2021/08/26 10:04:26;;;;;;;5.60;3.67;;;17.80;99.90;;;;;;6244931;28;20691;-75
2021/08/26 10:07:29;;;;;;;5.50;3.57;;;17.80;99.90;;;;;;6245871;28;20192;-77
2021/08/26 10:10:33;;;;;;;5.37;3.73;;;17.80;99.90;;;;;;6260685;28;20203;-75
2021/08/26 10:13:44;;;;;;;5.20;3.90;;;17.90;99.90;;;;;;6244138;28;20267;-75
2021/08/26 10:16:46;;;;;;;5.77;4.17;;;17.80;99.90;;;;;;6242662;28;20192;-76
2021/08/26 10:19:50;;;;;;;7.17;3.60;;;17.80;99.90;;;;;;6244070;28;20199;-75
2021/08/26 10:22:53;;;;;;;4.77;3.23;;;17.80;99.90;;;;;;6245156;28;20212;-76
2021/08/26 10:25:58;;;;;;;4.43;3.80;;;17.80;99.90;;;;;;6231631;28;20210;-75
2021/08/26 10:29:01;;;;;;;4.33;3.50;;;17.80;99.90;;;;;;6247811;28;20196;-76
2021/08/26 10:32:04;;;;;;;5.13;3.77;;;17.70;99.90;;;;;;6231878;28;20223;-76
2021/08/26 10:35:12;;;;;;;5.20;4.03;;;17.70;99.90;;;;;;6250020;28;20335;-75
2021/08/26 10:38:35;;;;;;;4.07;3.53;;;17.70;99.90;;;;;;6248597;28;20629;-75
2021/08/26 10:41:37;;;;;;;5.80;3.63;;;17.70;99.90;;;;;;6248423;28;20196;-76
2021/08/26 10:45:07;;;;;;;4.63;3.73;;;17.80;99.90;;;;;;6250029;28;20268;-75
2021/08/26 10:48:12;;;;;;;4.87;3.83;;;17.80;99.90;;;;;;6248243;28;20196;-75
2021/08/26 10:51:17;;;;;;;6.47;4.27;;;17.80;99.90;;;;;;6249840;28;20200;-75
2021/08/26 10:54:26;;;;;;;5.13;3.40;;;17.80;99.90;;;;;;6231912;28;20212;-76
2021/08/26 10:57:30;;;;;;;5.43;3.90;;;17.90;99.90;;;;;;6249962;28;20172;-75
2021/08/26 11:00:42;;;;;;;6.27;3.67;;;18.00;99.90;;;;;;6247717;28;20588;-76
2021/08/26 11:03:45;;;;;;;6.37;4.20;;;18.10;99.90;;;;;;6264260;28;20192;-75
2021/08/26 11:06:49;;;;;;;5.23;4.00;;;18.20;99.90;;;;;;6231523;28;20210;-75
2021/08/26 11:09:51;;;;;;;5.57;3.87;;;18.20;99.90;;;;;;6247616;28;20196;-75
2021/08/26 11:13:27;;;;;;;7.77;4.17;;;18.20;99.90;;;;;;6248956;28;20239;-77
2021/08/26 11:16:29;;;;;;;5.23;4.30;;;17.90;99.90;;;;;;6248320;28;20188;-75
2021/08/26 11:19:35;;;;;;;5.00;4.13;;;17.70;99.90;;;;;;6231352;28;20293;-76
2021/08/26 11:23:04;;;;;;;5.97;4.50;;;17.50;99.90;;;;;;6247189;28;20193;-75
2021/08/26 11:26:40;;;;;;;5.70;4.60;;;17.30;99.90;;;;;;6247413;28;20198;-76
2021/08/26 11:29:43;;;;;;;6.60;4.37;;;17.30;99.90;;;;;;6246859;28;20310;-75
2021/08/26 11:32:46;;;;;;;7.97;5.53;;;17.30;99.90;;;;;;6230206;28;20223;-76
2021/08/26 11:35:48;;;;;;;7.03;5.07;;;17.30;99.90;;;;;;6248707;28;20188;-77
2021/08/26 11:38:52;;;;;;;6.10;4.40;;;17.30;99.90;;;;;;6230551;28;20564;-75
2021/08/26 11:41:54;;;;;;;8.73;6.10;;;17.30;99.90;;;;;;6247404;28;20199;-75
2021/08/26 11:45:25;;;;;;;8.43;5.90;;;17.30;99.90;;;;;;6247142;28;20212;-75
2021/08/26 11:48:28;;;;;;;8.27;6.10;;;17.30;99.90;;;;;;6247017;28;20286;-76
2021/08/26 11:51:31;;;;;;;8.93;5.97;;;17.10;99.90;;;;;;6247636;28;20265;-75
2021/08/26 11:54:44;;;;;;;6.33;5.13;;;17.00;99.90;;;;;;6248484;28;20576;-75
2021/08/26 11:57:52;;;;;;;9.37;5.37;;;16.90;99.90;;;;;;6248914;28;20326;-77
2021/08/26 12:00:54;;;;;;;7.30;4.93;;;16.80;99.90;;;;;;6246335;28;20188;-75
2021/08/26 12:03:58;;;;;;;5.90;4.37;;;16.60;99.90;;;;;;6263469;28;20188;-75
2021/08/26 12:07:00;;;;;;;7.40;4.93;;;16.50;99.90;;;;;;6263407;28;20196;-76
2021/08/26 12:10:16;;;;;;;8.03;5.37;;;16.30;99.90;;;;;;6248240;28;20196;-77
2021/08/26 12:13:20;;;;;;;7.30;5.63;;;16.20;99.90;;;;;;6263266;28;20596;-75
2021/08/26 12:16:27;;;;;;;8.70;5.57;;;15.90;99.90;;;;;;6247704;28;20200;-75
2021/08/26 12:19:30;;;;;;;7.13;6.00;;;15.80;99.90;;;;;;6227478;28;20188;-76
2021/08/26 12:22:38;;;;;;;7.93;5.90;;;15.60;99.90;;;;;;6223675;28;20199;-75
2021/08/26 12:25:41;;;;;;;8.43;5.83;;;15.50;99.90;;;;;;6247073;28;20199;-75
2021/08/26 12:28:46;;;;;;;10.27;6.37;;;15.50;99.90;;;;;;6246399;28;20196;-75
2021/08/26 12:31:48;;;;;;;9.07;6.40;;;15.40;99.90;;;;;;6247952;28;20786;-75
2021/08/26 12:34:51;;;;;;;9.67;6.70;;;15.30;99.90;;;;;;6246698;28;20220;-75
2021/08/26 12:38:01;;;;;;;8.00;6.00;;;15.30;99.90;;;;;;6247300;28;20241;-75
2021/08/26 12:41:08;;;;;;;10.97;6.00;;;15.30;99.90;;;;;;6247481;28;20185;-74
2021/08/26 12:44:26;;;;;;;9.53;6.90;;;15.30;99.90;;;;;;6229629;28;20192;-75
2021/08/26 12:47:30;;;;;;;9.67;6.00;;;15.20;99.90;;;;;;6245903;28;20215;-74
2021/08/26 12:50:33;;;;;;;7.60;5.93;;;15.30;99.90;;;;;;6262397;28;20761;-74
2021/08/26 12:53:37;;;;;;;12.60;6.10;;;15.30;99.90;;;;;;6245700;28;20208;-76
2021/08/26 12:56:46;;;;;;;9.83;6.97;;;15.40;99.90;;;;;;6229645;28;20642;-75
2021/08/26 12:59:49;;;;;;;8.50;5.77;;;15.50;99.90;;;;;;6228960;28;20199;-76
2021/08/26 13:02:52;;;;;;;7.37;6.13;;;15.50;99.90;;;;;;6245733;28;20196;-75
2021/08/26 13:05:55;;;;;;;9.17;5.67;;;15.60;99.90;;;;;;6228838;28;20204;-77
2021/08/26 13:08:57;;;;;;;7.47;5.27;;;15.80;99.90;;;;;;6229450;28;20224;-76
2021/08/26 13:12:07;;;;;;;8.17;5.17;;;15.90;99.90;;;;;;6244619;28;20239;-77
2021/08/26 13:15:10;;;;;;;6.73;5.17;;;16.10;99.90;;;;;;6246546;28;20315;-77
2021/08/26 13:18:12;;;;;;;5.67;4.63;;;16.30;99.90;;;;;;6229246;28;20203;-77
2021/08/26 13:21:15;;;;;;;6.73;5.37;;;16.50;99.90;;;;;;6246231;28;20532;-76
2021/08/26 13:24:18;;;;;;;6.77;5.37;;;16.70;99.90;;;;;;6247153;28;20626;-77
2021/08/26 13:27:22;;;;;;;6.07;4.83;;;16.80;99.90;;;;;;6246767;28;20215;-77
2021/08/26 13:30:25;;;;;;;6.83;5.00;;;16.80;99.90;;;;;;6236765;28;20614;-77
2021/08/26 13:33:28;;;;;;;7.90;5.33;;;16.90;99.90;;;;;;6229088;28;20212;-78
2021/08/26 13:36:31;;;;;;;6.40;4.90;;;17.00;99.90;;;;;;6244376;28;20560;-77
2021/08/26 13:39:33;;;;;;;8.43;5.70;;;17.20;99.90;;;;;;6261917;28;20660;-76
2021/08/26 13:42:36;;;;;;;5.40;4.67;;;17.50;99.90;;;;;;6245036;28;20275;-76
2021/08/26 13:45:39;;;;;;;5.93;4.43;;;17.60;99.90;;;;;;6245318;28;20203;-77
2021/08/26 13:48:44;;;;;;;6.73;5.30;;;17.50;99.90;;;;;;6244970;28;20531;-76
2021/08/26 13:51:47;;;;;;;7.30;5.07;;;17.40;99.90;;;;;;6228692;28;20206;-76
2021/08/26 13:54:49;;;;;;;6.40;4.97;;;17.10;99.90;;;;;;6245066;28;20215;-76
2021/08/26 13:57:52;;;;;;;8.07;5.57;;;17.00;99.90;;;;;;6243701;28;20207;-77
2021/08/26 14:00:55;;;;;;;9.93;6.13;;;16.90;99.90;;;;;;6228630;28;20188;-76
2021/08/26 14:03:57;;;;;;;7.73;5.67;;;16.80;99.90;;;;;;6261370;28;20200;-77
2021/08/26 14:07:00;;;;;;;6.90;5.33;;;16.70;99.90;;;;;;6244541;28;20200;-77
2021/08/26 14:10:03;;;;;;;6.90;5.33;;;16.60;99.90;;;;;;6243916;28;20199;-77
2021/08/26 14:13:05;;;;;;;8.13;5.73;;;16.50;99.90;;;;;;6244077;28;20235;-75
2021/08/26 14:16:10;;;;;;;7.10;6.10;;;16.30;99.90;;;;;;6227309;28;20221;-75
2021/08/26 14:19:12;;;;;;;7.97;5.53;;;16.20;99.90;;;;;;6219578;28;20204;-76
2021/08/26 14:22:15;;;;;;;9.80;5.83;;;16.00;99.90;;;;;;6243957;28;20196;-77
2021/08/26 14:25:17;;;;;;;6.50;5.27;;;16.00;99.90;;;;;;6244159;28;20196;-75
2021/08/26 14:28:19;;;;;;;7.77;5.47;;;16.00;99.90;;;;;;6227682;28;20643;-75
2021/08/26 14:31:21;;;;;;;10.93;6.07;;;16.00;99.90;;;;;;6244548;28;20196;-76
2021/08/26 14:34:24;;;;;;;6.10;5.17;;;15.90;99.90;;;;;;6244118;28;20574;-76
2021/08/26 14:37:44;;;;;;;8.37;4.63;;;15.90;99.90;;;;;;6221171;28;20201;-75
2021/08/26 14:40:46;;;;;;;6.37;5.37;;;15.80;99.90;;;;;;6243385;28;20313;-76
2021/08/26 14:43:49;;;;;;;7.13;5.27;;;15.70;99.90;;;;;;6227614;28;20656;-77
2021/08/26 14:46:51;;;;;;;7.00;5.10;;;15.60;99.90;;;;;;6228156;28;20192;-76
2021/08/26 14:50:10;;;;;;;8.50;5.20;;;15.50;99.90;;;;;;6243729;28;20562;-75
2021/08/26 14:53:12;;;;;;;6.73;5.17;;;15.50;99.90;;;;;;6244005;28;20224;-75
2021/08/26 14:56:15;;;;;;;8.47;5.60;;;15.40;99.90;;;;;;6227772;28;20579;-76
2021/08/26 14:59:17;;;;;;;6.47;4.77;;;15.40;99.90;;;;;;6243924;28;20275;-75
2021/08/26 15:02:20;;;;;;;7.17;4.23;;;15.30;99.90;;;;;;6227658;28;20207;-76
2021/08/26 15:05:24;;;;;;;6.83;4.67;;;15.30;99.90;;;;;;6245089;28;20679;-76
2021/08/26 15:08:26;;;;;;;4.83;3.93;;;15.30;99.90;;;;;;6245317;28;20575;-76
2021/08/26 15:11:28;;;;;;;6.33;3.77;;;15.20;99.90;;;;;;6248401;28;20220;-77
2021/08/26 15:14:30;;;;;;;4.33;3.57;;;15.20;99.90;;;;;;6263686;28;20825;-75
2021/08/26 15:17:33;;;;;;;3.60;3.13;;;15.20;99.90;;;;;;6248345;28;20195;-77
2021/08/26 15:20:36;;;;;;;4.47;3.17;;;15.20;99.90;;;;;;6236732;28;20254;-76
2021/08/26 15:23:38;;;;;;;4.63;2.87;;;15.30;99.90;;;;;;6231236;28;20199;-75
2021/08/26 15:26:41;;;;;;;3.07;2.70;;;15.30;99.90;;;;;;6264263;28;20246;-76
2021/08/26 15:29:44;;;;;;;3.43;2.80;;;15.40;99.90;;;;;;6247801;28;20214;-76
2021/08/26 15:32:46;;;;;;;3.80;2.90;;;15.60;99.90;;;;;;6231085;28;20674;-77
2021/08/26 15:35:49;;;;;;;3.17;2.63;;;15.80;99.90;;;;;;6248579;28;20208;-75
2021/08/26 15:38:53;;;;;;;4.00;2.83;;;16.10;99.90;;;;;;6247670;28;20196;-76
2021/08/26 15:41:56;;;;;;;3.00;2.37;;;16.20;99.90;;;;;;6248438;28;20271;-76
2021/08/26 15:44:58;;;;;;;3.40;2.47;;;16.20;99.90;;;;;;6248165;28;20195;-76
2021/08/26 15:48:01;;;;;;;3.13;2.40;;;16.10;99.90;;;;;;6223173;28;20211;-76
2021/08/26 15:51:03;;;;;;;2.53;2.17;;;16.00;99.90;;;;;;6245891;28;20290;-76
2021/08/26 15:54:11;;;;;;;4.50;2.57;;;15.90;99.90;;;;;;6247395;28;20287;-76
2021/08/26 16:00:51;;;;;;;2.60;2.33;;;15.80;99.90;;;;;;6229514;28;20648;-75
2021/08/26 16:03:55;;;;;;;3.23;2.47;;;15.70;99.90;;;;;;6263362;28;20204;-76
2021/08/26 16:06:58;;;;;;;3.90;2.50;;;15.70;99.90;;;;;;6248370;28;20199;-77